Moscow, Tennessee
Current Conditions -  °F | °C
As of 2:50 PM on Tuesday 25 Nov 2014 (Local Time) from KOLV Reporting Station
Broken Clouds Broken Clouds  
Wind Chill: 41°   Ceiling: 25000
Heat Index: 45°   Visibility: 10mi
Dew Point: 27°   Wind: 6mph
Humidity: 49%   Direction: 270°W
Pressure: 30.16"   Gusts: NA
Location:  35.06°N, 89.4°W
Report Text: KOLV 252050Z 27005KT 10SM BKN250 07/M03 A3016
Loading
Personal Weather Stations






























Interactive Weather Map New forecast layout! Learn more

10-Day Weather Forecast

Advertisements
Track Severe Weather on mobile